Sparti, Greece
Current Conditions -  °F | °C
As of 9:50 AM on Wednesday 26 Nov 2014 (Local Time) from LGKL Reporting Station
Haze Haze  
Wind Chill: 52°   Ceiling: 7000
Heat Index: 52°   Visibility: 4mi
Dew Point: 43°   Wind: 0mph
Humidity: 71%   Direction: NA
Pressure: 30.09"   Gusts: NA
Location:  37.07°N, 22.43°E
Report Text: LGKL 260750Z 00000KT 6000 3000SW BR FEW010 SCT030 BKN070 11/06 Q1019
Loading
Personal Weather Stations






























Interactive Weather Map New forecast layout! Learn more

10-Day Weather Forecast

Advertisements
Track Severe Weather on mobile